Time;durP1;ratioP1;P1;durP2;ratioP2;P2;SDS_P1;SDS_P2;PMS_P1;PMS_P2;Temp;Humidity;BMP_temperature;BMP_pressure;BME280_temperature;BME280_humidity;BME280_pressure;Samples;Min_cycle;Max_cycle;Signal;HPM_P1;HPM_P2
2024/03/09 00:00:29;;;;;;;13.40;9.00;;;;;;;6.12;61.71;95618.63;4977835;28;20058;-79
2024/03/09 00:03:00;;;;;;;15.88;9.27;;;;;;;6.10;59.89;95620.56;4977002;28;20070;-78
2024/03/09 00:05:29;;;;;;;17.10;10.05;;;;;;;6.08;59.70;95622.53;4977087;28;20114;-76
2024/03/09 00:08:01;;;;;;;17.15;10.15;;;;;;;6.04;59.07;95618.69;4976585;28;20086;-78
2024/03/09 00:10:32;;;;;;;14.02;9.25;;;;;;;6.00;59.48;95619.22;4977073;28;20578;-79
2024/03/09 00:13:02;;;;;;;13.68;10.02;;;;;;;5.98;60.00;95621.97;4977565;28;20146;-78
2024/03/09 00:15:31;;;;;;;13.38;8.75;;;;;;;5.98;59.88;95624.56;4977036;28;20059;-77
2024/03/09 00:17:59;;;;;;;16.55;9.82;;;;;;;5.97;60.15;95628.16;4977205;28;20055;-77
2024/03/09 00:20:34;;;;;;;15.20;9.93;;;;;;;5.94;61.45;95631.03;4976976;28;20098;-78
2024/03/09 00:23:03;;;;;;;16.77;10.43;;;;;;;5.94;60.88;95628.44;4977313;28;20055;-77
2024/03/09 00:25:35;;;;;;;15.95;10.20;;;;;;;5.94;62.49;95626.69;4976656;28;20051;-79
2024/03/09 00:28:04;;;;;;;14.07;9.80;;;;;;;5.95;61.98;95624.94;4976485;28;20051;-78
2024/03/09 00:30:32;;;;;;;15.43;9.93;;;;;;;5.92;61.64;95612.28;4976801;28;20059;-78
2024/03/09 00:33:01;;;;;;;14.80;9.65;;;;;;;5.90;61.76;95616.84;4976246;28;20062;-77
2024/03/09 00:35:31;;;;;;;13.63;9.27;;;;;;;5.88;62.73;95613.63;4976680;28;20582;-78
2024/03/09 00:37:59;;;;;;;12.90;8.85;;;;;;;5.87;60.93;95604.28;4977465;28;20475;-77
2024/03/09 00:40:29;;;;;;;14.73;10.77;;;;;;;5.84;60.46;95600.25;4976983;28;20137;-79
2024/03/09 00:42:59;;;;;;;15.82;10.57;;;;;;;5.83;61.82;95603.00;4977066;28;20078;-78
2024/03/09 00:45:27;;;;;;;15.00;10.15;;;;;;;5.80;60.61;95598.19;4976615;28;20577;-77
2024/03/09 00:47:54;;;;;;;16.60;10.73;;;;;;;5.75;61.58;95589.16;4977001;28;20459;-78
2024/03/09 00:50:24;;;;;;;18.05;10.90;;;;;;;5.77;63.30;95583.81;4992575;28;20256;-79
2024/03/09 00:52:53;;;;;;;16.48;9.63;;;;;;;5.83;64.45;95584.88;4978163;28;20054;-79
2024/03/09 00:55:22;;;;;;;15.65;10.52;;;;;;;5.81;64.01;95579.09;4977261;28;20047;-78
2024/03/09 00:57:50;;;;;;;17.15;10.48;;;;;;;5.75;62.02;95581.41;4978326;28;20057;-83
2024/03/09 01:00:19;;;;;;;15.82;10.38;;;;;;;5.77;65.56;95591.56;4996593;28;20051;-77
2024/03/09 01:02:48;;;;;;;14.55;10.30;;;;;;;5.82;65.23;95581.50;4996891;28;20105;-79
2024/03/09 01:05:19;;;;;;;16.52;11.05;;;;;;;5.83;63.90;95577.94;4996331;28;20082;-80
2024/03/09 01:07:47;;;;;;;13.23;9.18;;;;;;;5.80;62.82;95573.13;4980280;28;20106;-78
2024/03/09 01:10:16;;;;;;;13.85;9.70;;;;;;;5.72;61.38;95570.59;5012598;23;20055;-84
2024/03/09 01:12:44;;;;;;;15.60;10.23;;;;;;;5.61;61.33;95569.25;4993410;28;20047;-85
2024/03/09 01:15:13;;;;;;;15.63;10.10;;;;;;;5.52;61.62;95565.94;4991082;28;20506;-83
2024/03/09 01:17:41;;;;;;;15.05;9.98;;;;;;;5.53;62.75;95566.72;4993823;28;20062;-85
2024/03/09 01:20:10;;;;;;;17.85;10.63;;;;;;;5.52;62.12;95567.72;4977258;28;20057;-84
2024/03/09 01:22:43;;;;;;;14.45;10.60;;;;;;;5.51;62.08;95568.69;4973504;29;20047;-83
2024/03/09 01:25:11;;;;;;;14.57;10.23;;;;;;;5.50;62.38;95565.28;4973709;28;20074;-85
2024/03/09 01:27:40;;;;;;;13.30;9.55;;;;;;;5.47;61.64;95573.41;4972930;28;20059;-86
2024/03/09 01:30:09;;;;;;;17.00;11.25;;;;;;;5.44;63.43;95562.59;4974295;28;20517;-82
2024/03/09 01:32:40;;;;;;;14.75;10.38;;;;;;;5.36;62.49;95566.88;4974448;28;20134;-84
2024/03/09 01:35:09;;;;;;;17.48;10.32;;;;;;;5.29;61.66;95562.56;4974637;29;20062;-86
2024/03/09 01:37:37;;;;;;;16.05;10.60;;;;;;;5.23;61.23;95571.03;4974405;28;20055;-82
2024/03/09 01:40:07;;;;;;;14.50;9.55;;;;;;;5.18;61.19;95565.56;4973628;28;20051;-82
2024/03/09 01:42:35;;;;;;;15.73;10.50;;;;;;;5.20;64.03;95569.56;4972001;28;20279;-81
2024/03/09 01:45:05;;;;;;;16.08;10.40;;;;;;;5.28;66.14;95574.69;4973147;28;20035;-82
2024/03/09 01:47:33;;;;;;;16.90;10.40;;;;;;;5.27;62.94;95583.44;4973199;29;20057;-84
2024/03/09 01:50:02;;;;;;;16.27;10.20;;;;;;;5.20;62.67;95582.50;4974222;28;20051;-84
2024/03/09 01:52:32;;;;;;;18.42;10.50;;;;;;;5.17;63.69;95582.88;4973502;29;20408;-83
2024/03/09 01:55:06;;;;;;;16.70;10.98;;;;;;;5.14;62.51;95578.06;4973996;29;20051;-81
2024/03/09 01:57:34;;;;;;;14.23;10.13;;;;;;;5.12;62.05;95574.84;4973480;29;20043;-83
2024/03/09 02:00:03;;;;;;;17.13;10.93;;;;;;;5.13;64.61;95581.59;4973544;28;20062;-83
2024/03/09 02:02:33;;;;;;;15.40;10.65;;;;;;;5.15;64.60;95584.81;4972416;28;20052;-82
2024/03/09 02:05:03;;;;;;;17.67;12.00;;;;;;;5.11;63.57;95586.13;4972170;28;20075;-82
2024/03/09 02:07:35;;;;;;;16.83;10.00;;;;;;;5.10;64.14;95576.78;4972883;29;20051;-85
2024/03/09 02:10:05;;;;;;;15.35;10.25;;;;;;;5.09;63.35;95570.78;4975444;28;20113;-83
2024/03/09 02:12:33;;;;;;;15.10;10.43;;;;;;;5.07;65.72;95577.09;4978183;29;20044;-87
2024/03/09 02:15:01;;;;;;;17.08;11.48;;;;;;;5.08;66.33;95579.53;4979232;28;20055;-87
2024/03/09 02:17:30;;;;;;;16.92;10.32;;;;;;;5.10;64.76;95576.78;4979172;28;20043;-88
2024/03/09 02:20:00;;;;;;;19.13;11.57;;;;;;;5.06;63.09;95580.69;4978901;28;20043;-87
2024/03/09 02:22:28;;;;;;;18.70;11.63;;;;;;;5.01;63.12;95580.38;4978480;28;20086;-90
2024/03/09 02:24:58;;;;;;;15.20;10.55;;;;;;;5.00;65.76;95586.53;4978595;29;20039;-88
2024/03/09 02:27:26;;;;;;;16.42;10.60;;;;;;;4.98;63.79;95578.16;4978088;28;20115;-85
2024/03/09 02:29:53;;;;;;;15.80;9.82;;;;;;;4.93;63.35;95586.41;4978031;28;20047;-88
2024/03/09 02:32:22;;;;;;;16.63;11.38;;;;;;;4.87;63.29;95576.75;4977987;28;20047;-84
2024/03/09 02:34:50;;;;;;;15.32;9.85;;;;;;;4.89;64.73;95579.97;4977500;28;20087;-85
2024/03/09 02:37:18;;;;;;;18.77;11.35;;;;;;;4.90;65.70;95574.66;4977030;28;20616;-88
2024/03/09 02:39:48;;;;;;;16.38;11.25;;;;;;;4.92;64.81;95569.31;4976231;28;20049;-87
2024/03/09 02:42:18;;;;;;;15.77;10.50;;;;;;;4.91;65.13;95567.69;4975786;28;20035;-86
2024/03/09 02:44:46;;;;;;;17.92;11.43;;;;;;;4.91;66.95;95568.50;4976137;29;20047;-85
2024/03/09 02:47:15;;;;;;;15.48;11.00;;;;;;;4.90;65.98;95555.75;4972642;29;20058;-83
2024/03/09 02:49:43;;;;;;;14.95;10.48;;;;;;;4.88;65.36;95558.50;4963428;28;20090;-85
2024/03/09 02:52:11;;;;;;;16.23;10.75;;;;;;;4.87;64.74;95564.63;4967294;28;20141;-81
2024/03/09 02:54:39;;;;;;;16.05;10.85;;;;;;;4.84;64.29;95552.06;4967910;29;20083;-84
2024/03/09 02:57:08;;;;;;;16.65;9.82;;;;;;;4.81;64.61;95560.19;4967985;28;20051;-81
2024/03/09 02:59:38;;;;;;;15.93;11.25;;;;;;;4.91;67.80;95568.50;4967662;28;20057;-86
2024/03/09 03:03:44;;;;;;;15.55;10.60;;;;;;;4.95;67.26;95572.34;4967621;28;20043;-81
2024/03/09 03:04:52;;;;;;;17.17;11.00;;;;;;;4.93;66.16;95566.53;4967098;29;20054;-83
2024/03/09 03:07:20;;;;;;;15.55;10.77;;;;;;;4.84;64.73;95574.53;4964895;28;20073;-82
2024/03/09 03:09:54;;;;;;;17.27;10.77;;;;;;;4.77;65.56;95564.06;4964948;28;20212;-83
2024/03/09 03:12:22;;;;;;;15.05;10.27;;;;;;;4.73;64.94;95565.38;4966314;29;20136;-82
2024/03/09 03:14:51;;;;;;;17.50;10.93;;;;;;;4.69;64.96;95559.75;4966356;29;20114;-82
2024/03/09 03:17:19;;;;;;;14.65;10.13;;;;;;;4.68;64.64;95557.31;4965657;29;20051;-81
2024/03/09 03:19:47;;;;;;;16.40;10.70;;;;;;;4.71;65.14;95564.75;4967378;28;20133;-82
2024/03/09 03:22:14;;;;;;;15.88;10.27;;;;;;;4.69;64.66;95557.16;4966282;28;20079;-80
2024/03/09 03:24:43;;;;;;;16.10;10.30;;;;;;;4.64;64.49;95553.50;4966005;28;20059;-83
2024/03/09 03:27:10;;;;;;;19.17;10.63;;;;;;;4.61;64.13;95553.81;4965200;28;20399;-82
2024/03/09 03:29:38;;;;;;;15.85;10.23;;;;;;;4.56;64.77;95548.38;4965262;28;20047;-83
2024/03/09 03:32:08;;;;;;;17.58;10.70;;;;;;;4.52;63.96;95542.72;4966845;28;20047;-83
2024/03/09 03:34:37;;;;;;;15.93;10.30;;;;;;;4.48;64.11;95541.47;4965309;28;20055;-80
2024/03/09 03:37:04;;;;;;;14.63;10.40;;;;;;;4.47;64.32;95540.66;4964243;28;20047;-82
2024/03/09 03:39:32;;;;;;;18.77;11.52;;;;;;;4.46;64.02;95548.56;4965178;28;20066;-83
2024/03/09 03:42:00;;;;;;;15.10;9.77;;;;;;;4.42;63.85;95553.28;4966468;29;20043;-81
2024/03/09 03:44:30;;;;;;;14.68;9.98;;;;;;;4.40;63.95;95555.22;4966110;29;20359;-80
2024/03/09 03:46:57;;;;;;;15.82;10.05;;;;;;;4.39;64.55;95550.22;4965084;29;20468;-81
2024/03/09 03:49:27;;;;;;;14.70;9.32;;;;;;;4.37;63.86;95555.56;4964590;28;20070;-82
2024/03/09 03:51:55;;;;;;;16.38;10.43;;;;;;;4.34;63.87;95543.00;4964199;28;20523;-83
2024/03/09 03:54:23;;;;;;;14.05;10.00;;;;;;;4.28;63.96;95528.97;4963195;28;20059;-83
2024/03/09 03:56:53;;;;;;;17.60;10.18;;;;;;;4.30;63.89;95518.47;4961645;28;20058;-80
2024/03/09 03:59:21;;;;;;;17.05;10.43;;;;;;;4.32;64.36;95521.69;4962141;28;20138;-81
2024/03/09 04:01:49;;;;;;;15.95;10.70;;;;;;;4.39;66.19;95521.81;4961210;29;20070;-82
2024/03/09 04:04:17;;;;;;;16.20;9.68;;;;;;;4.46;65.38;95510.66;4961484;28;20051;-84
2024/03/09 04:06:46;;;;;;;16.98;10.48;;;;;;;4.47;64.16;95507.09;4961249;28;20051;-83
2024/03/09 04:09:14;;;;;;;15.35;9.50;;;;;;;4.49;65.63;95512.88;4961836;28;20530;-81
2024/03/09 04:11:43;;;;;;;16.10;10.25;;;;;;;4.58;66.34;95534.31;4964533;28;20118;-80
2024/03/09 04:14:11;;;;;;;16.50;10.68;;;;;;;4.62;66.58;95535.59;4964039;28;20463;-83
2024/03/09 04:16:39;;;;;;;16.52;10.52;;;;;;;4.57;65.23;95519.81;4964470;28;20055;-80
2024/03/09 04:19:07;;;;;;;18.38;11.20;;;;;;;4.49;64.67;95512.88;4963658;28;20074;-81
2024/03/09 04:21:35;;;;;;;15.98;10.05;;;;;;;4.46;64.88;95508.09;4962666;28;20059;-82
2024/03/09 04:24:05;;;;;;;15.85;10.10;;;;;;;4.39;64.23;95503.75;4962798;28;20423;-80
2024/03/09 04:26:33;;;;;;;16.85;11.43;;;;;;;4.34;64.26;95501.69;4962788;29;20566;-81
2024/03/09 04:29:01;;;;;;;17.15;10.98;;;;;;;4.32;64.58;95495.88;4962979;28;20087;-83
2024/03/09 04:31:32;;;;;;;15.18;9.80;;;;;;;4.32;64.67;95503.63;4962858;29;20051;-80
2024/03/09 04:34:01;;;;;;;15.75;10.35;;;;;;;4.32;64.16;95495.88;4961578;28;20511;-80
2024/03/09 04:36:30;;;;;;;14.43;9.82;;;;;;;4.32;64.29;95501.03;4963132;28;20507;-81
2024/03/09 04:39:00;;;;;;;14.88;10.25;;;;;;;4.32;64.25;95496.69;4963141;28;20504;-80
2024/03/09 04:41:32;;;;;;;17.33;10.35;;;;;;;4.34;64.30;95496.50;4962850;29;20051;-80
2024/03/09 04:44:01;;;;;;;16.08;10.90;;;;;;;4.38;64.23;95495.22;4963715;29;20099;-80
2024/03/09 04:46:29;;;;;;;14.05;9.65;;;;;;;4.39;64.05;95496.81;4963196;28;20121;-85
2024/03/09 04:48:56;;;;;;;14.30;10.20;;;;;;;4.42;64.34;95506.00;4962926;28;20059;-80
2024/03/09 04:51:24;;;;;;;15.02;10.80;;;;;;;4.47;65.19;95511.47;4963225;28;20102;-81
2024/03/09 04:53:52;;;;;;;14.68;10.05;;;;;;;4.51;66.87;95521.28;4963157;28;20051;-81
2024/03/09 04:56:21;;;;;;;16.25;10.38;;;;;;;4.52;66.30;95522.88;4963193;28;20511;-81
2024/03/09 04:58:50;;;;;;;16.92;10.73;;;;;;;4.50;64.90;95511.09;4963161;28;20061;-82
2024/03/09 05:01:18;;;;;;;18.65;11.73;;;;;;;4.48;64.85;95505.31;4963729;28;20167;-79
2024/03/09 05:03:46;;;;;;;16.02;9.55;;;;;;;4.42;65.29;95509.38;4963181;28;20186;-82
2024/03/09 05:06:13;;;;;;;15.27;10.73;;;;;;;4.36;64.94;95510.06;4963522;28;20408;-83
2024/03/09 05:08:44;;;;;;;17.88;10.63;;;;;;;4.29;64.55;95502.19;4962545;28;20074;-82
2024/03/09 05:11:13;;;;;;;16.10;10.55;;;;;;;4.23;64.70;95507.22;4962852;29;20051;-80
2024/03/09 05:13:41;;;;;;;19.00;11.77;;;;;;;4.21;64.93;95496.25;4962379;28;20059;-81
2024/03/09 05:16:10;;;;;;;14.65;9.95;;;;;;;4.19;65.83;95498.22;4962071;28;20047;-80
2024/03/09 05:18:37;;;;;;;15.32;10.77;;;;;;;4.17;65.87;95493.22;4962504;28;20489;-80
2024/03/09 05:21:05;;;;;;;18.20;11.25;;;;;;;4.18;66.35;95494.03;4961916;28;20066;-81
2024/03/09 05:23:33;;;;;;;17.88;10.73;;;;;;;4.19;65.86;95485.31;4965778;28;20051;-80
2024/03/09 05:26:00;;;;;;;14.82;10.20;;;;;;;4.19;65.40;95485.31;4968394;28;20431;-82
2024/03/09 05:28:29;;;;;;;16.15;10.85;;;;;;;4.18;65.31;95483.72;4966555;28;20051;-88
2024/03/09 05:30:59;;;;;;;17.10;10.27;;;;;;;4.17;64.73;95482.09;4966582;28;20079;-86
2024/03/09 05:33:28;;;;;;;14.63;10.00;;;;;;;4.15;65.22;95484.03;4967111;28;20051;-83
2024/03/09 05:35:56;;;;;;;17.58;10.98;;;;;;;4.13;64.86;95477.28;4967079;28;20062;-81
2024/03/09 05:38:24;;;;;;;15.88;10.57;;;;;;;4.09;64.68;95473.41;4965526;28;20055;-82
2024/03/09 05:40:51;;;;;;;18.02;11.70;;;;;;;4.05;65.33;95469.56;4965336;29;20114;-81
2024/03/09 05:43:19;;;;;;;16.67;11.15;;;;;;;4.03;65.88;95471.50;4965968;28;20052;-81
2024/03/09 05:45:46;;;;;;;16.75;11.07;;;;;;;4.02;65.43;95463.94;4966738;28;20126;-83
2024/03/09 05:48:14;;;;;;;18.55;11.75;;;;;;;4.00;65.35;95455.53;4964711;28;20119;-81
2024/03/09 05:50:43;;;;;;;18.17;11.27;;;;;;;3.98;65.37;95468.63;4965607;28;20047;-81
2024/03/09 05:53:11;;;;;;;17.08;11.15;;;;;;;3.97;65.18;95467.00;4965592;29;20051;-82
2024/03/09 05:55:43;;;;;;;16.60;10.55;;;;;;;3.97;64.74;95468.81;4964710;29;20495;-82
2024/03/09 05:58:12;;;;;;;17.70;10.82;;;;;;;3.96;64.81;95469.75;4964876;28;20499;-83
2024/03/09 06:00:41;;;;;;;15.25;9.80;;;;;;;3.94;64.95;95472.53;4965760;28;20082;-83
2024/03/09 06:03:09;;;;;;;16.00;10.45;;;;;;;3.91;64.87;95478.00;4965897;29;20462;-81
2024/03/09 06:05:37;;;;;;;14.77;10.15;;;;;;;3.87;64.79;95469.81;4965017;29;20107;-81
2024/03/09 06:08:07;;;;;;;16.75;11.13;;;;;;;3.85;64.95;95473.53;4963892;28;20158;-84
2024/03/09 06:10:34;;;;;;;17.17;11.05;;;;;;;3.82;64.98;95471.28;4963051;28;20051;-82
2024/03/09 06:13:11;;;;;;;19.38;12.32;;;;;;;3.78;65.22;95467.41;4962992;29;20518;-85
2024/03/09 06:15:39;;;;;;;15.93;10.80;;;;;;;3.74;65.23;95466.13;4965592;28;20055;-82
2024/03/09 06:18:07;;;;;;;16.27;10.90;;;;;;;3.69;65.10;95459.69;4965285;28;20047;-84
2024/03/09 06:20:34;;;;;;;15.95;10.80;;;;;;;3.66;65.21;95467.78;4966131;28;20074;-81
2024/03/09 06:23:03;;;;;;;15.57;10.95;;;;;;;3.64;65.64;95464.56;4964784;29;20055;-83
2024/03/09 06:25:32;;;;;;;17.60;11.27;;;;;;;3.64;65.64;95472.31;4967107;28;20578;-86
2024/03/09 06:28:05;;;;;;;17.73;11.38;;;;;;;3.60;65.55;95476.19;4965513;28;20051;-81
2024/03/09 06:30:33;;;;;;;18.33;11.45;;;;;;;3.59;65.70;95473.78;4966393;28;20114;-82
2024/03/09 06:33:01;;;;;;;16.83;11.13;;;;;;;3.60;65.63;95483.13;4970852;28;20047;-81
2024/03/09 06:35:31;;;;;;;15.63;10.75;;;;;;;3.64;65.83;95480.03;4973224;29;20051;-84
2024/03/09 06:38:00;;;;;;;19.05;11.82;;;;;;;3.68;66.07;95481.31;4972738;29;20058;-86
2024/03/09 06:40:30;;;;;;;18.58;11.93;;;;;;;3.72;65.52;95485.19;4971322;28;20062;-82
2024/03/09 06:43:01;;;;;;;18.20;11.07;;;;;;;3.81;66.28;95490.31;4970595;29;20523;-85
2024/03/09 06:45:29;;;;;;;17.08;11.20;;;;;;;3.87;65.58;95485.28;4970281;28;20043;-87
2024/03/09 06:47:58;;;;;;;19.00;10.60;;;;;;;3.94;65.53;95482.84;4970680;28;20058;-84
2024/03/09 06:50:27;;;;;;;15.65;10.45;;;;;;;3.98;65.41;95480.72;4970055;28;20436;-85
2024/03/09 06:52:56;;;;;;;17.35;11.25;;;;;;;4.03;65.04;95476.66;4969638;29;20118;-81
2024/03/09 06:55:25;;;;;;;18.00;11.55;;;;;;;4.13;65.50;95476.44;4968727;28;20082;-85
2024/03/09 06:57:54;;;;;;;16.83;9.73;;;;;;;4.22;65.17;95470.28;4968660;29;20051;-84
2024/03/09 07:00:28;;;;;;;16.17;10.52;;;;;;;4.37;65.93;95470.34;4967180;28;20098;-81
2024/03/09 07:02:58;;;;;;;16.52;11.10;;;;;;;4.51;64.96;95458.50;4967618;28;20047;-83
2024/03/09 07:05:27;;;;;;;15.93;10.02;;;;;;;4.62;64.48;95457.28;4966145;29;20047;-84
2024/03/09 07:07:55;;;;;;;13.45;9.60;;;;;;;4.73;64.59;95456.88;4967275;28;20051;-82
2024/03/09 07:10:24;;;;;;;15.75;11.05;;;;;;;4.87;66.12;95463.06;5008835;23;20058;-76
2024/03/09 07:12:52;;;;;;;16.50;10.98;;;;;;;5.02;65.04;95455.34;4992852;28;20081;-76
2024/03/09 07:15:22;;;;;;;15.30;11.25;;;;;;;5.14;65.06;95456.56;4993107;28;20135;-76
2024/03/09 07:17:51;;;;;;;16.00;10.88;;;;;;;5.26;64.55;95459.50;4993012;28;20056;-76
2024/03/09 07:20:23;;;;;;;15.90;11.27;;;;;;;5.41;64.36;95465.50;4977359;28;20051;-75
2024/03/09 07:22:51;;;;;;;15.85;11.02;;;;;;;5.47;63.13;95466.56;4973559;28;20061;-77
2024/03/09 07:25:24;;;;;;;15.35;10.05;;;;;;;5.50;63.75;95459.25;4973433;28;20126;-75
2024/03/09 07:27:54;;;;;;;12.38;9.75;;;;;;;5.56;62.74;95455.16;4974272;28;20058;-75
2024/03/09 07:30:22;;;;;;;14.95;10.38;;;;;;;5.61;62.87;95455.41;4973671;28;20470;-76
2024/03/09 07:32:53;;;;;;;15.40;10.90;;;;;;;5.63;62.46;95460.41;4978814;28;20043;-77
2024/03/09 07:35:27;;;;;;;15.63;10.57;;;;;;;5.72;62.27;95462.72;4973478;28;20138;-76
2024/03/09 07:37:58;;;;;;;16.40;11.00;;;;;;;5.80;61.85;95463.63;4973508;28;20538;-75
2024/03/09 07:40:29;;;;;;;14.50;9.55;;;;;;;5.89;61.55;95467.72;4973275;28;20058;-76
2024/03/09 07:42:56;;;;;;;18.45;10.75;;;;;;;5.94;61.17;95450.69;4974967;28;20050;-75
2024/03/09 07:45:26;;;;;;;14.95;10.13;;;;;;;6.01;61.24;95460.31;4977018;28;20078;-75
2024/03/09 07:47:55;;;;;;;16.70;11.10;;;;;;;6.15;61.30;95462.09;4977645;28;20053;-76
2024/03/09 07:50:23;;;;;;;12.55;9.85;;;;;;;6.27;60.74;95454.63;4976869;28;20047;-75
2024/03/09 07:52:53;;;;;;;14.95;10.18;;;;;;;6.40;60.54;95457.38;4976801;28;20042;-75
2024/03/09 07:55:23;;;;;;;14.18;9.73;;;;;;;6.48;60.15;95459.84;4976701;28;20051;-75
2024/03/09 07:57:52;;;;;;;14.70;10.57;;;;;;;6.63;61.27;95469.38;4976699;28;20503;-75
2024/03/09 08:00:36;;;;;;;14.18;10.07;;;;;;;6.77;61.45;95456.31;4976942;28;20129;-82
2024/03/09 08:03:05;;;;;;;16.50;10.95;;;;;;;6.90;59.56;95468.59;4976596;28;20047;-78
2024/03/09 08:05:33;;;;;;;15.60;10.45;;;;;;;7.09;59.63;95466.38;4976475;28;20050;-78
2024/03/09 08:08:02;;;;;;;16.13;11.00;;;;;;;7.30;58.95;95465.53;4976623;28;20057;-77
2024/03/09 08:10:31;;;;;;;14.95;10.27;;;;;;;7.52;58.20;95461.91;4976386;28;20050;-75
2024/03/09 08:12:59;;;;;;;13.32;10.98;;;;;;;7.76;58.41;95449.44;4976929;28;20076;-78
2024/03/09 08:15:28;;;;;;;22.08;11.57;;;;;;;8.03;58.00;95452.97;4975900;28;20055;-78
2024/03/09 08:17:57;;;;;;;17.77;11.30;;;;;;;8.24;57.20;95452.84;4976460;28;20059;-75
2024/03/09 08:20:26;;;;;;;17.00;10.75;;;;;;;8.42;56.20;95459.34;4976771;28;20085;-76
2024/03/09 08:22:54;;;;;;;17.23;12.55;;;;;;;8.51;57.32;95452.94;4976675;28;20043;-78
2024/03/09 08:25:27;;;;;;;14.40;11.02;;;;;;;8.54;57.30;95449.94;4975820;28;20522;-78
2024/03/09 08:27:55;;;;;;;18.33;12.82;;;;;;;8.59;56.24;95444.97;4976098;28;20061;-78
2024/03/09 08:30:23;;;;;;;17.17;11.55;;;;;;;8.61;55.89;95442.94;4976399;28;20058;-75
2024/03/09 08:32:53;;;;;;;15.32;11.45;;;;;;;8.68;55.84;95448.19;4976437;28;20466;-77
2024/03/09 08:35:22;;;;;;;15.45;11.25;;;;;;;8.82;55.88;95449.00;4976211;28;20065;-77
2024/03/09 08:37:51;;;;;;;17.05;11.30;;;;;;;8.96;57.43;95445.38;4976384;28;20487;-76
2024/03/09 08:40:22;;;;;;;17.60;11.65;;;;;;;9.13;56.08;95442.41;4976201;28;20082;-75
2024/03/09 08:42:51;;;;;;;16.23;11.05;;;;;;;9.30;54.93;95448.78;4976457;28;20492;-75
2024/03/09 08:45:21;;;;;;;16.52;11.48;;;;;;;9.46;55.91;95447.56;4976004;28;20135;-80
2024/03/09 08:47:50;;;;;;;16.20;11.93;;;;;;;9.66;55.61;95450.13;4996823;28;20031;-76
2024/03/09 08:50:18;;;;;;;16.70;11.60;;;;;;;9.86;55.54;95450.06;4999286;28;20074;-76
2024/03/09 08:52:46;;;;;;;16.63;12.02;;;;;;;10.01;54.11;95447.22;4980490;28;20050;-76
2024/03/09 08:55:16;;;;;;;16.70;11.40;;;;;;;10.16;52.95;95433.94;4976150;28;20499;-76
2024/03/09 08:57:46;;;;;;;18.42;11.23;;;;;;;10.26;52.72;95429.88;4976412;28;20523;-77
2024/03/09 09:00:15;;;;;;;16.25;11.10;;;;;;;10.42;52.48;95427.81;4976778;28;20134;-78
2024/03/09 09:02:46;;;;;;;16.20;11.07;;;;;;;10.54;52.50;95423.56;4976886;28;20101;-77
2024/03/09 09:05:14;;;;;;;16.52;11.13;;;;;;;10.71;52.94;95427.25;4976441;28;20418;-77
2024/03/09 09:07:45;;;;;;;17.80;11.55;;;;;;;10.86;53.05;95428.75;4976648;28;20051;-80
2024/03/09 09:10:14;;;;;;;14.90;10.93;;;;;;;11.02;52.58;95425.63;4977370;28;20495;-77
2024/03/09 09:12:45;;;;;;;15.50;11.57;;;;;;;11.20;54.39;95421.47;4976054;28;20082;-79
2024/03/09 09:15:16;;;;;;;15.13;11.20;;;;;;;11.41;52.44;95418.44;4975727;28;20521;-80
2024/03/09 09:17:44;;;;;;;13.85;10.32;;;;;;;11.60;53.13;95408.03;4976287;28;20246;-79
2024/03/09 09:20:13;;;;;;;15.55;10.60;;;;;;;11.81;50.51;95414.66;4975924;28;20051;-80
2024/03/09 09:22:43;;;;;;;14.07;11.15;;;;;;;11.99;49.75;95416.47;4975798;28;20506;-79
2024/03/09 09:25:12;;;;;;;15.05;11.00;;;;;;;12.14;49.42;95409.84;4976168;28;20063;-77
2024/03/09 09:27:43;;;;;;;14.30;11.07;;;;;;;12.34;48.92;95409.56;4976170;28;20074;-77
2024/03/09 09:30:13;;;;;;;14.10;10.57;;;;;;;12.53;48.40;95401.69;4976082;28;20467;-78
2024/03/09 09:32:43;;;;;;;13.95;10.63;;;;;;;12.69;48.35;95401.03;4976012;28;20106;-78
2024/03/09 09:35:11;;;;;;;17.63;10.90;;;;;;;12.89;48.27;95400.72;4975738;28;20055;-78
2024/03/09 09:37:40;;;;;;;15.45;10.90;;;;;;;13.07;47.25;95399.84;4975329;28;20502;-77
2024/03/09 09:40:13;;;;;;;16.00;10.52;;;;;;;13.26;50.00;95389.28;4986263;28;20038;-79
2024/03/09 09:42:43;;;;;;;;;;;;;;;13.51;48.13;95391.66;4998704;28;20054;-80
2024/03/09 09:45:17;;;;;;;17.83;10.52;;;;;;;13.71;48.22;95397.34;4985248;28;19976;-79
2024/03/09 09:47:47;;;;;;;16.58;10.52;;;;;;;13.93;47.22;95379.19;4973586;28;20055;-81
2024/03/09 09:50:19;;;;;;;14.90;10.73;;;;;;;14.15;46.34;95383.78;4978509;28;20062;-80
2024/03/09 09:52:49;;;;;;;16.50;11.13;;;;;;;14.29;45.12;95387.72;4984110;28;20050;-82
2024/03/09 09:55:19;;;;;;;12.30;9.98;;;;;;;14.41;49.30;95385.84;4988062;28;20478;-80
2024/03/09 09:57:47;;;;;;;14.02;10.73;;;;;;;14.56;45.31;95381.91;4979360;28;20062;-76
2024/03/09 10:00:17;;;;;;;14.23;10.88;;;;;;;14.70;45.05;95375.34;4974386;28;20055;-76
2024/03/09 10:02:45;;;;;;;13.20;10.50;;;;;;;14.80;44.27;95365.00;4974128;28;20047;-75
2024/03/09 10:05:18;;;;;;;11.80;10.05;;;;;;;14.95;43.18;95374.94;4973748;28;20498;-78
2024/03/09 10:07:58;;;;;;;14.23;10.70;;;;;;;15.19;44.19;95375.56;4973645;28;20100;-76
2024/03/09 10:10:30;;;;;;;14.32;10.90;;;;;;;15.47;42.24;95376.47;4973964;28;20434;-76
2024/03/09 10:13:08;;;;;;;;;;;;;;;15.78;42.79;95371.66;4974978;28;20530;-76
2024/03/09 10:15:40;;;;;;;12.43;9.75;;;;;;;16.13;44.19;95365.22;4974471;28;19922;-75
2024/03/09 10:18:09;;;;;;;12.68;10.10;;;;;;;16.35;41.56;95368.59;4974617;28;20054;-76
2024/03/09 10:20:38;;;;;;;13.63;10.07;;;;;;;16.60;42.52;95354.09;4974800;28;20051;-76
2024/03/09 10:23:08;;;;;;;12.38;10.30;;;;;;;16.85;42.93;95359.59;4974635;28;20106;-76
2024/03/09 10:25:37;;;;;;;13.10;9.63;;;;;;;17.12;40.74;95350.84;4974095;28;20059;-75
2024/03/09 10:28:06;;;;;;;14.85;10.20;;;;;;;17.40;38.57;95341.78;4974796;28;20046;-76
2024/03/09 10:30:37;;;;;;;13.02;9.60;;;;;;;17.62;37.62;95340.84;4974233;28;20086;-75
2024/03/09 10:33:11;;;;;;;13.00;10.23;;;;;;;17.74;36.37;95340.66;4974240;28;20484;-78
2024/03/09 10:35:41;;;;;;;11.77;8.65;;;;;;;17.94;37.16;95332.03;4973492;28;20519;-78
2024/03/09 10:38:10;;;;;;;12.88;9.27;;;;;;;18.21;36.41;95337.13;4973711;28;20070;-78
2024/03/09 10:40:37;;;;;;;11.77;9.20;;;;;;;18.39;36.14;95325.25;4973792;28;20061;-78
2024/03/09 10:43:11;;;;;;;12.63;9.18;;;;;;;18.64;35.68;95335.84;4973489;28;20043;-77
2024/03/09 10:45:40;;;;;;;11.15;8.52;;;;;;;18.87;36.02;95339.03;4958195;28;20051;-78
2024/03/09 10:48:10;;;;;;;12.75;8.98;;;;;;;19.07;34.74;95340.91;4957979;28;20134;-78
2024/03/09 10:50:43;;;;;;;10.57;8.70;;;;;;;19.24;35.54;95337.97;4954813;28;20130;-79
2024/03/09 10:53:25;;;;;;;15.32;9.68;;;;;;;19.37;33.46;95331.31;4956870;28;20498;-79
2024/03/09 10:55:56;;;;;;;10.90;9.02;;;;;;;19.47;33.40;95334.75;4973683;28;20125;-78
2024/03/09 10:58:26;;;;;;;9.70;8.07;;;;;;;19.62;33.97;95325.97;4972384;28;20146;-80
2024/03/09 11:00:53;;;;;;;11.85;8.48;;;;;;;19.76;34.85;95329.63;4972947;28;20633;-79
2024/03/09 11:03:23;;;;;;;12.35;8.13;;;;;;;19.99;36.26;95326.66;4968605;28;20075;-78
2024/03/09 11:05:53;;;;;;;11.85;8.48;;;;;;;20.33;33.36;95321.41;4969907;28;20054;-79
2024/03/09 11:08:22;;;;;;;9.20;7.97;;;;;;;20.63;32.54;95314.34;4973163;28;20057;-80
2024/03/09 11:10:50;;;;;;;10.07;8.40;;;;;;;20.87;31.71;95306.47;4973529;28;20078;-80
2024/03/09 11:13:19;;;;;;;10.95;8.43;;;;;;;21.05;32.00;95313.72;4968625;28;20043;-78
2024/03/09 11:15:50;;;;;;;10.85;7.72;;;;;;;21.23;31.41;95317.56;4959052;28;20054;-79
2024/03/09 11:18:21;;;;;;;8.75;7.20;;;;;;;21.42;32.83;95316.84;4976319;28;20051;-80
2024/03/09 11:20:54;;;;;;;9.60;7.38;;;;;;;21.71;33.88;95296.38;4977118;28;20054;-78
2024/03/09 11:23:25;;;;;;;9.98;8.35;;;;;;;22.05;29.22;95297.25;4977351;28;20055;-79
2024/03/09 11:25:54;;;;;;;9.85;8.05;;;;;;;22.19;29.37;95290.13;4976687;28;20061;-79
2024/03/09 11:28:27;;;;;;;13.38;9.77;;;;;;;22.17;29.06;95277.16;4977106;28;20053;-79
2024/03/09 11:31:10;;;;;;;10.75;9.02;;;;;;;22.17;29.07;95279.00;4970986;28;20047;-79
2024/03/09 11:33:43;;;;;;;11.65;9.15;;;;;;;22.34;28.46;95275.88;4957970;28;20530;-78
2024/03/09 11:36:40;;;;;;;9.45;8.45;;;;;;;22.54;28.29;95272.94;4957880;29;20055;-79